Time;durP1;ratioP1;P1;durP2;ratioP2;P2;SDS_P1;SDS_P2;PMS_P1;PMS_P2;Temp;Humidity;BMP_temperature;BMP_pressure;BME280_temperature;BME280_humidity;BME280_pressure;Samples;Min_cycle;Max_cycle;Signal;HPM_P1;HPM_P2
2021/08/02 00:01:48;;;;;;;;;22.25;20.00;;;;;34.86;27.39;100535.22;144256;598;131020;-75
2021/08/02 00:04:28;;;;;;;;;21.00;19.50;;;;;34.81;27.35;100532.25;144221;582;132015;-73
2021/08/02 00:07:07;;;;;;;;;16.00;16.00;;;;;34.77;26.10;100532.84;144257;677;131020;-74
2021/08/02 00:09:45;;;;;;;;;16.50;14.50;;;;;34.63;25.49;100538.28;144222;634;132012;-70
2021/08/02 00:12:29;;;;;;;;;17.50;16.50;;;;;34.42;26.10;100520.22;144243;604;131021;-71
2021/08/02 00:15:03;;;;;;;;;21.75;18.25;;;;;34.41;26.03;100522.06;144227;683;132907;-71
2021/08/02 00:17:37;;;;;;;;;16.25;15.50;;;;;34.38;26.14;100524.38;144252;667;131022;-79
2021/08/02 00:20:15;;;;;;;;;16.00;15.00;;;;;34.43;25.61;100530.03;144225;647;131907;-77
2021/08/02 00:22:51;;;;;;;;;20.50;18.50;;;;;34.43;25.08;100529.22;144251;587;132008;-77
2021/08/02 00:25:25;;;;;;;;;14.75;14.50;;;;;34.43;24.99;100526.50;144221;621;132012;-78
2021/08/02 00:27:59;;;;;;;;;16.25;16.25;;;;;34.41;25.04;100523.97;144256;599;131021;-83
2021/08/02 00:30:35;;;;;;;;;16.50;15.50;;;;;34.44;25.13;100536.34;144233;610;132906;-72
2021/08/02 00:33:09;;;;;;;;;19.00;17.75;;;;;34.47;25.21;100538.66;144252;583;131020;-72
2021/08/02 00:35:56;;;;;;;;;19.50;16.00;;;;;34.59;25.01;100537.00;144225;584;132018;-74
2021/08/02 00:38:38;;;;;;;;;18.00;16.50;;;;;34.44;24.73;100537.19;144252;630;131020;-69
2021/08/02 00:41:38;;;;;;;;;16.25;15.50;;;;;34.40;24.79;100527.72;144222;605;132909;-77
2021/08/02 00:44:53;;;;;;;;;13.00;13.00;;;;;34.21;25.13;100532.84;144256;590;131046;-81
2021/08/02 00:47:30;;;;;;;;;17.25;14.25;;;;;34.03;24.97;100529.88;144226;597;132014;-84
2021/08/02 00:50:18;;;;;;;;;15.50;15.50;;;;;33.98;25.60;100526.91;144254;682;131021;-81
2021/08/02 00:53:00;;;;;;;;;15.25;15.25;;;;;34.02;25.10;100515.41;144224;575;131906;-77
2021/08/02 00:55:36;;;;;;;;;17.25;16.25;;;;;34.08;25.04;100517.31;144256;585;132012;-76
2021/08/02 00:58:15;;;;;;;;;16.50;16.50;;;;;34.06;25.28;100524.87;144231;581;132012;-79
2021/08/02 01:00:53;;;;;;;;;16.75;15.00;;;;;34.21;25.22;100523.84;144255;579;131022;-72
2021/08/02 01:03:29;;;;;;;;;15.75;15.75;;;;;34.18;25.30;100536.00;144226;591;132012;-74
2021/08/02 01:06:03;;;;;;;;;18.25;16.25;;;;;34.11;25.77;100531.59;144247;574;132009;-72
2021/08/02 01:08:41;;;;;;;;;20.00;18.50;;;;;34.06;26.01;100530.31;144230;590;132045;-76
2021/08/02 01:11:18;;;;;;;;;22.00;17.50;;;;;34.04;26.38;100528.81;144254;578;131020;-74
2021/08/02 01:13:53;;;;;;;;;16.50;15.50;;;;;33.87;26.65;100523.72;144220;637;132021;-74
2021/08/02 01:16:27;;;;;;;;;20.50;19.25;;;;;33.73;26.79;100533.62;144251;599;132010;-72
2021/08/02 01:19:08;;;;;;;;;15.50;14.50;;;;;33.74;26.67;100523.59;144228;572;131907;-72
2021/08/02 01:21:43;;;;;;;;;18.75;15.50;;;;;33.73;26.54;100520.03;144257;771;132010;-73
2021/08/02 01:24:18;;;;;;;;;18.75;16.00;;;;;33.70;26.74;100522.34;144232;565;132907;-75
2021/08/02 01:27:31;;;;;;;;;19.00;18.00;;;;;33.67;26.63;100518.13;144256;564;131021;-73
2021/08/02 01:30:27;;;;;;;;;16.75;16.50;;;;;33.63;27.02;100525.00;144227;657;131906;-72
2021/08/02 01:33:01;;;;;;;;;17.00;15.75;;;;;33.52;27.00;100520.97;144250;582;131020;-77
2021/08/02 01:35:36;;;;;;;;;17.00;15.50;;;;;33.42;27.02;100519.63;144225;620;131907;-78
2021/08/02 01:38:10;;;;;;;;;14.25;14.25;;;;;33.42;26.66;100523.16;144255;694;131020;-75
2021/08/02 01:40:45;;;;;;;;;14.50;14.50;;;;;33.48;26.76;100522.41;144227;587;132020;-84
2021/08/02 01:43:19;;;;;;;;;16.25;15.25;;;;;33.55;26.16;100522.44;144259;609;131012;-78
2021/08/02 01:46:28;;;;;;;;;16.50;16.50;;;;;33.58;26.41;100527.47;144226;640;132012;-77
2021/08/02 01:49:13;;;;;;;;;15.50;15.50;;;;;33.62;26.33;100520.59;144252;630;132010;-85
2021/08/02 01:51:54;;;;;;;;;16.00;14.75;;;;;33.70;26.41;100527.78;144233;628;131907;-86
2021/08/02 01:55:00;;;;;;;;;17.00;17.00;;;;;33.83;26.15;100527.03;144258;608;131020;-82
2021/08/02 01:57:48;;;;;;;;;15.75;15.75;;;;;33.71;26.22;100529.47;144227;616;132013;-70
2021/08/02 02:00:22;;;;;;;;;14.25;14.25;;;;;33.65;26.09;100528.34;144237;604;132014;-70
2021/08/02 02:03:04;;;;;;;;;16.75;16.75;;;;;33.63;26.29;100527.72;144223;692;132907;-70
2021/08/02 02:05:42;;;;;;;;;13.75;13.75;;;;;33.67;26.34;100525.47;144244;600;132014;-80
2021/08/02 02:08:22;;;;;;;;;17.25;17.00;;;;;33.71;26.48;100535.72;144221;621;132020;-80
2021/08/02 02:11:00;;;;;;;;;21.50;18.25;;;;;33.53;26.45;100525.37;144250;577;132014;-76
2021/08/02 02:13:48;;;;;;;;;21.00;19.50;;;;;33.37;26.64;100525.66;144218;585;132012;-75
2021/08/02 02:16:24;;;;;;;;;14.50;14.50;;;;;32.90;27.07;100528.81;144249;595;132010;-80
2021/08/02 02:19:00;;;;;;;;;15.25;15.25;;;;;33.05;27.04;100530.59;144223;593;132015;-78
2021/08/02 02:21:36;;;;;;;;;11.75;9.75;;;;;33.09;26.94;100531.03;144250;569;132014;-78
2021/08/02 02:24:10;;;;;;;;;19.50;18.50;;;;;33.14;27.13;100528.59;144237;633;132018;-78
2021/08/02 02:26:46;;;;;;;;;16.00;16.00;;;;;33.03;27.30;100522.63;144254;617;131022;-87
2021/08/02 02:29:23;;;;;;;;;20.25;20.25;;;;;33.30;27.32;100533.78;144224;570;132012;-81
2021/08/02 02:31:57;;;;;;;;;0.25;0.25;;;;;33.33;27.73;100535.25;144260;691;131020;-85
2021/08/02 02:34:33;;;;;;;;;16.75;16.50;;;;;33.54;27.96;100545.25;144232;602;132012;-82
2021/08/02 02:37:09;;;;;;;;;19.50;17.25;;;;;33.56;30.18;100543.19;144258;603;131022;-85
2021/08/02 02:39:44;;;;;;;;;19.75;19.75;;;;;33.61;29.72;100553.47;144227;566;131907;-81
2021/08/02 02:42:18;;;;;;;;;18.00;17.00;;;;;33.95;30.08;100547.19;144259;688;131021;-86
2021/08/02 02:44:54;;;;;;;;;23.25;20.25;;;;;34.05;30.55;100555.84;144229;659;131906;-82
2021/08/02 02:47:30;;;;;;;;;21.00;20.50;;;;;34.06;30.72;100543.06;144256;605;132010;-77
2021/08/02 02:50:06;;;;;;;;;26.50;22.00;;;;;34.08;31.61;100546.44;144219;611;132021;-73
2021/08/02 02:52:41;;;;;;;;;25.50;24.75;;;;;33.98;32.30;100544.09;144246;602;132010;-79
2021/08/02 02:55:16;;;;;;;;;26.00;23.50;;;;;33.93;32.94;100534.81;144221;571;132907;-78
2021/08/02 02:57:52;;;;;;;;;27.25;22.25;;;;;33.88;32.89;100527.28;144252;591;132008;-79
2021/08/02 03:00:27;;;;;;;;;20.00;19.75;;;;;33.74;33.13;100516.28;144221;633;132012;-75
2021/08/02 03:03:03;;;;;;;;;21.25;18.50;;;;;33.78;32.85;100526.78;144253;587;132010;-74
2021/08/02 03:05:40;;;;;;;;;21.00;19.25;;;;;33.87;32.58;100531.87;144224;604;132021;-76
2021/08/02 03:08:19;;;;;;;;;22.75;21.25;;;;;34.00;32.35;100547.44;144252;674;133020;-74
2021/08/02 03:10:55;;;;;;;;;22.00;20.00;;;;;34.25;32.08;100550.47;144221;564;132013;-75
2021/08/02 03:13:30;;;;;;;;;21.00;21.00;;;;;34.28;31.71;100559.31;144256;580;131021;-74
2021/08/02 03:16:06;;;;;;;;;20.75;20.00;;;;;34.41;31.79;100562.13;144220;569;132012;-82
2021/08/02 03:18:40;;;;;;;;;29.25;26.00;;;;;34.51;31.90;100561.72;144250;592;131022;-77
2021/08/02 03:21:16;;;;;;;;;27.75;23.00;;;;;34.44;32.05;100560.88;144223;563;132012;-76
2021/08/02 03:24:28;;;;;;;;;26.00;23.50;;;;;34.27;32.73;100563.06;144256;570;131020;-77
2021/08/02 03:27:27;;;;;;;;;26.25;25.00;;;;;34.14;33.27;100572.84;144221;564;132909;-72
2021/08/02 03:30:08;;;;;;;;;26.75;26.50;;;;;34.02;33.61;100569.88;144256;624;131022;-75
2021/08/02 03:32:47;;;;;;;;;28.00;25.50;;;;;33.93;33.72;100584.69;144230;600;132018;-72
2021/08/02 03:35:22;;;;;;;;;33.25;28.25;;;;;33.87;33.75;100588.19;144257;569;131021;-73
2021/08/02 03:37:58;;;;;;;;;26.75;26.00;;;;;33.69;33.92;100585.97;144221;600;132014;-70
2021/08/02 03:40:32;;;;;;;;;22.75;19.75;;;;;33.50;33.64;100585.59;144258;566;132010;-75
2021/08/02 03:43:07;;;;;;;;;27.75;23.25;;;;;33.46;32.58;100594.38;144225;629;131906;-74
2021/08/02 03:45:43;;;;;;;;;22.25;20.75;;;;;33.44;31.52;100599.19;144248;607;132014;-71
2021/08/02 03:48:20;;;;;;;;;25.00;21.25;;;;;33.37;30.43;100599.94;144225;670;132013;-74
2021/08/02 03:50:54;;;;;;;;;20.75;19.25;;;;;33.36;30.26;100603.69;144257;575;131020;-77
2021/08/02 03:53:28;;;;;;;;;20.75;19.75;;;;;33.37;30.35;100601.84;144229;729;131907;-79
2021/08/02 03:56:02;;;;;;;;;24.00;21.75;;;;;33.53;30.07;100609.72;144259;681;132011;-76
2021/08/02 03:58:37;;;;;;;;;19.50;17.25;;;;;33.61;28.81;100606.00;144231;588;131906;-78
2021/08/02 04:01:11;;;;;;;;;18.25;17.25;;;;;33.66;28.67;100611.69;144251;569;132014;-75
2021/08/02 04:03:45;;;;;;;;;17.75;17.75;;;;;33.68;28.65;100606.03;144223;570;132014;-70
2021/08/02 04:06:19;;;;;;;;;1.00;1.00;;;;;33.61;29.29;100611.44;144258;658;132012;-69
2021/08/02 04:08:53;;;;;;;;;20.75;20.75;;;;;33.66;29.28;100597.25;144233;589;132012;-69
2021/08/02 04:11:27;;;;;;;;;25.00;22.75;;;;;33.70;29.40;100603.97;144244;564;131021;-73
2021/08/02 04:14:01;;;;;;;;;20.50;20.25;;;;;33.66;29.48;100608.12;144226;624;132033;-77
2021/08/02 04:16:35;;;;;;;;;21.00;19.00;;;;;33.85;29.42;100603.91;144261;564;131015;-81
2021/08/02 04:19:10;;;;;;;;;23.00;20.75;;;;;34.00;29.12;100604.62;144213;569;133907;-79
2021/08/02 04:21:44;;;;;;;;;26.50;19.25;;;;;34.29;28.87;100596.41;144255;569;131020;-84
2021/08/02 04:24:18;;;;;;;;;20.50;18.25;;;;;34.30;27.94;100606.31;144226;567;132012;-80
2021/08/02 04:26:52;;;;;;;;;18.75;17.75;;;;;34.17;27.83;100613.31;144256;604;131021;-85
2021/08/02 04:29:25;;;;;;;;;22.50;21.00;;;;;34.12;28.17;100614.94;144224;648;132012;-85
2021/08/02 04:32:00;;;;;;;;;23.75;21.50;;;;;34.09;28.40;100613.47;144251;634;133015;-82
2021/08/02 04:34:34;;;;;;;;;23.75;18.75;;;;;34.03;28.44;100625.19;144228;570;132021;-77
2021/08/02 04:37:08;;;;;;;;;16.75;16.00;;;;;34.01;28.50;100619.94;144247;566;132010;-78
2021/08/02 04:39:44;;;;;;;;;15.50;15.50;;;;;34.01;28.64;100617.22;144226;634;131907;-80
2021/08/02 04:42:18;;;;;;;;;17.75;17.75;;;;;34.01;29.18;100627.25;144257;588;131022;-83
2021/08/02 04:44:52;;;;;;;;;20.75;19.50;;;;;34.21;29.07;100630.09;144226;600;132907;-83
2021/08/02 04:47:26;;;;;;;;;22.00;20.75;;;;;34.34;28.97;100634.81;144251;697;132010;-76
2021/08/02 04:50:00;;;;;;;;;20.50;19.00;;;;;34.40;28.97;100625.81;144217;569;132012;-76
2021/08/02 04:52:34;;;;;;;;;19.50;17.75;;;;;34.51;28.99;100627.97;144258;588;131020;-80
2021/08/02 04:55:09;;;;;;;;;15.25;14.50;;;;;34.61;29.40;100633.03;144230;620;131909;-77
2021/08/02 04:57:43;;;;;;;;;19.75;19.25;;;;;34.75;30.04;100633.94;144254;709;132010;-81
2021/08/02 05:00:17;;;;;;;;;18.50;16.00;;;;;34.82;30.47;100640.28;144225;641;132907;-76
2021/08/02 05:02:51;;;;;;;;;17.00;16.00;;;;;34.87;30.45;100632.34;144248;597;131021;-80
2021/08/02 05:05:26;;;;;;;;;20.25;19.00;;;;;34.69;30.41;100630.16;144230;622;132907;-81
2021/08/02 05:08:00;;;;;;;;;24.00;20.75;;;;;34.83;30.60;100631.06;144252;709;132010;-80
2021/08/02 05:10:34;;;;;;;;;20.50;18.00;;;;;35.19;30.71;100634.50;144229;594;131016;-81
2021/08/02 05:13:08;;;;;;;;;23.00;20.75;;;;;35.29;30.79;100634.09;144258;579;131020;-86
2021/08/02 05:15:42;;;;;;;;;18.75;18.25;;;;;35.45;30.81;100641.06;144223;630;132907;-86
2021/08/02 05:18:16;;;;;;;;;18.75;17.75;;;;;35.46;31.22;100635.38;144252;569;132010;-83
2021/08/02 05:20:50;;;;;;;;;19.00;18.75;;;;;35.64;30.67;100633.94;144228;581;132014;-86
2021/08/02 05:23:24;;;;;;;;;19.25;18.50;;;;;35.64;30.68;100642.12;144257;576;132010;-80
2021/08/02 05:25:58;;;;;;;;;23.25;19.50;;;;;35.78;30.50;100643.78;144225;586;131907;-73
2021/08/02 05:28:33;;;;;;;;;19.25;19.25;;;;;35.84;29.91;100642.09;144244;596;132010;-78
2021/08/02 05:31:08;;;;;;;;;20.00;18.75;;;;;36.20;29.03;100651.72;144230;613;131907;-74
2021/08/02 05:33:41;;;;;;;;;19.50;19.50;;;;;36.06;29.23;100656.34;144248;587;131021;-74
2021/08/02 05:36:16;;;;;;;;;24.25;21.50;;;;;36.19;29.15;100656.34;144222;596;132907;-77
2021/08/02 05:38:50;;;;;;;;;25.00;24.00;;;;;36.32;28.78;100665.56;144252;566;132010;-74
2021/08/02 05:41:24;;;;;;;;;27.75;26.25;;;;;36.73;28.26;100664.37;144225;620;131906;-78
2021/08/02 05:43:58;;;;;;;;;28.00;25.00;;;;;36.89;27.85;100658.41;144259;678;131014;-71
2021/08/02 05:46:32;;;;;;;;;25.25;21.50;;;;;36.90;27.55;100662.84;144231;569;131907;-68
2021/08/02 05:49:06;;;;;;;;;24.75;24.75;;;;;36.87;27.69;100668.75;144253;595;131020;-84
2021/08/02 05:51:40;;;;;;;;;30.50;26.75;;;;;37.10;27.26;100661.91;144221;596;132014;-78
2021/08/02 05:54:14;;;;;;;;;26.75;23.00;;;;;37.23;27.54;100659.06;144247;776;131021;-77
2021/08/02 05:56:48;;;;;;;;;30.75;29.00;;;;;37.18;27.77;100658.06;144225;569;131906;-75
2021/08/02 05:59:22;;;;;;;;;29.75;27.25;;;;;37.20;27.25;100653.22;144248;563;132012;-75
2021/08/02 06:01:59;;;;;;;;;25.25;24.75;;;;;37.36;26.77;100654.59;144227;647;131907;-82
2021/08/02 06:04:33;;;;;;;;;27.00;26.75;;;;;37.32;26.47;100647.88;144259;632;131020;-69
2021/08/02 06:07:08;;;;;;;;;31.25;28.25;;;;;37.45;26.46;100652.44;144228;569;132018;-71
2021/08/02 06:09:41;;;;;;;;;29.50;26.25;;;;;37.51;26.39;100641.44;144267;597;131003;-70
2021/08/02 06:12:15;;;;;;;;;31.00;28.50;;;;;37.80;25.44;100633.59;144229;564;131016;-74
2021/08/02 06:14:49;;;;;;;;;25.00;24.50;;;;;37.54;26.20;100640.16;144253;563;131031;-70
2021/08/02 06:17:23;;;;;;;;;30.50;27.00;;;;;37.75;26.62;100642.44;144228;574;132907;-71
2021/08/02 06:20:01;;;;;;;;;26.25;24.25;;;;;37.40;26.65;100628.44;144248;564;132012;-68
2021/08/02 06:22:35;;;;;;;;;31.25;29.50;;;;;37.51;26.50;100635.09;144217;646;132018;-70
2021/08/02 06:25:09;;;;;;;;;31.00;29.00;;;;;37.86;26.13;100637.34;144249;565;132023;-71
2021/08/02 06:27:43;;;;;;;;;32.00;29.00;;;;;38.17;26.32;100638.28;144231;580;131907;-71
2021/08/02 06:30:18;;;;;;;;;33.50;29.75;;;;;38.31;26.11;100637.09;144253;586;131020;-69
2021/08/02 06:32:52;;;;;;;;;30.00;28.25;;;;;38.00;25.97;100638.91;144224;592;131907;-71
2021/08/02 06:35:26;;;;;;;;;32.25;27.75;;;;;38.48;25.54;100637.31;144256;613;131020;-69
2021/08/02 06:38:00;;;;;;;;;40.00;32.75;;;;;37.49;27.06;100629.84;144229;629;131907;-71
2021/08/02 06:40:35;;;;;;;;;30.75;27.00;;;;;37.37;26.96;100639.84;144256;570;131021;-70
2021/08/02 06:43:09;;;;;;;;;39.75;34.25;;;;;37.47;26.88;100640.19;144221;578;132012;-70
2021/08/02 06:45:45;;;;;;;;;43.75;34.75;;;;;37.68;26.78;100629.91;144238;634;132010;-70
2021/08/02 06:48:19;;;;;;;;;35.00;31.50;;;;;37.51;27.33;100635.94;144224;576;132012;-70
2021/08/02 06:50:55;;;;;;;;;39.00;32.75;;;;;36.34;29.19;100630.69;144250;573;132010;-70
2021/08/02 06:53:29;;;;;;;;;35.75;32.50;;;;;37.83;27.20;100633.16;144222;638;132018;-70
2021/08/02 06:56:04;;;;;;;;;37.75;31.75;;;;;38.25;26.61;100622.41;144248;601;132010;-71
2021/08/02 06:58:38;;;;;;;;;34.50;29.50;;;;;38.37;26.68;100630.69;144222;597;132012;-70
2021/08/02 07:01:12;;;;;;;;;35.00;31.50;;;;;38.58;26.11;100618.41;144257;630;131014;-71
2021/08/02 07:03:46;;;;;;;;;32.75;30.00;;;;;38.62;25.79;100613.31;144227;597;132012;-70
2021/08/02 07:06:20;;;;;;;;;38.25;32.00;;;;;37.88;26.18;100625.09;144258;574;131030;-70
2021/08/02 07:08:57;;;;;;;;;34.75;31.25;;;;;38.73;25.15;100615.28;144231;610;132013;-71
2021/08/02 07:11:31;;;;;;;;;33.00;29.25;;;;;39.17;24.65;100615.06;144246;582;131022;-69
2021/08/02 07:14:05;;;;;;;;;30.25;26.75;;;;;38.74;26.02;100621.59;144222;638;132020;-69
2021/08/02 07:16:39;;;;;;;;;33.25;28.25;;;;;38.80;26.29;100619.84;144251;606;132010;-70
2021/08/02 07:19:13;;;;;;;;;36.75;30.00;;;;;38.75;27.34;100620.53;144224;646;132012;-70
2021/08/02 07:21:47;;;;;;;;;30.00;28.00;;;;;39.08;26.71;100616.44;144260;583;132008;-70
2021/08/02 07:24:20;;;;;;;;;32.75;29.00;;;;;38.96;27.43;100615.59;144227;595;131907;-71
2021/08/02 07:26:54;;;;;;;;;29.00;28.00;;;;;38.67;28.81;100620.81;144248;607;132014;-69
2021/08/02 07:29:28;;;;;;;;;31.25;28.75;;;;;39.17;27.51;100625.22;144225;570;131909;-70
2021/08/02 07:32:02;;;;;;;;;30.50;28.00;;;;;38.48;29.14;100623.63;144259;625;131021;-69
2021/08/02 07:34:36;;;;;;;;;26.00;25.00;;;;;37.73;30.01;100627.34;144221;606;132907;-70
2021/08/02 07:37:10;;;;;;;;;35.50;30.00;;;;;38.04;29.61;100631.91;144251;632;132010;-69
2021/08/02 07:39:44;;;;;;;;;28.75;28.00;;;;;37.93;29.50;100630.75;144228;766;131907;-70
2021/08/02 07:42:18;;;;;;;;;34.00;29.50;;;;;38.03;29.38;100626.63;144256;563;131022;-69
2021/08/02 07:44:52;;;;;;;;;31.25;26.75;;;;;37.43;29.84;100622.53;144226;576;132907;-70
2021/08/02 07:47:26;;;;;;;;;28.00;27.00;;;;;37.35;28.22;100615.44;144256;567;131021;-71
2021/08/02 07:50:00;;;;;;;;;25.50;24.25;;;;;37.20;27.55;100614.91;144228;646;132012;-71
2021/08/02 07:52:34;;;;;;;;;33.00;29.00;;;;;38.43;27.55;100621.53;144255;566;132011;-70
2021/08/02 07:55:09;;;;;;;;;28.00;26.50;;;;;38.62;27.58;100609.69;144231;588;131907;-71
2021/08/02 07:57:43;;;;;;;;;29.50;25.25;;;;;38.84;27.43;100610.09;144255;583;132012;-69
2021/08/02 08:00:18;;;;;;;;;31.25;28.50;;;;;38.75;26.60;100607.66;144224;614;132012;-70
2021/08/02 08:02:52;;;;;;;;;28.50;27.50;;;;;38.51;25.88;100612.19;144241;610;131020;-69
2021/08/02 08:05:26;;;;;;;;;24.00;23.00;;;;;38.07;27.52;100609.50;144224;603;132012;-70
2021/08/02 08:08:00;;;;;;;;;32.00;29.75;;;;;38.74;28.38;100605.12;144256;603;132010;-70
2021/08/02 08:10:34;;;;;;;;;34.00;29.75;;;;;38.92;28.93;100596.84;144227;708;131907;-69
2021/08/02 08:13:08;;;;;;;;;27.00;26.50;;;;;39.16;29.00;100599.69;144258;621;132010;-69
2021/08/02 08:15:42;;;;;;;;;34.50;30.50;;;;;39.21;30.72;100597.06;144229;604;132012;-69
2021/08/02 08:18:16;;;;;;;;;33.00;29.75;;;;;39.64;29.94;100605.25;144253;566;131020;-69
2021/08/02 08:20:51;;;;;;;;;27.75;27.00;;;;;39.84;30.51;100596.66;144231;618;132020;-71
2021/08/02 08:23:25;;;;;;;;;27.75;25.00;;;;;39.55;31.81;100594.59;144253;615;132010;-69
2021/08/02 08:25:59;;;;;;;;;31.25;29.50;;;;;38.66;33.39;100598.06;144227;627;131907;-69
2021/08/02 08:28:36;;;;;;;;;24.25;24.25;;;;;38.69;34.42;100594.00;144242;603;132015;-69
2021/08/02 08:31:10;;;;;;;;;28.50;27.00;;;;;38.63;33.68;100600.41;144232;665;131907;-69
2021/08/02 08:33:46;;;;;;;;;30.00;28.00;;;;;39.47;32.62;100592.19;144255;576;131022;-69
2021/08/02 08:36:21;;;;;;;;;31.50;27.25;;;;;39.15;32.97;100594.41;144230;630;131473;-69
2021/08/02 08:38:55;;;;;;;;;28.25;27.50;;;;;39.25;33.05;100595.53;144257;686;132010;-70
2021/08/02 08:41:29;;;;;;;;;26.75;24.00;;;;;39.17;32.64;100600.53;144221;648;132907;-69
2021/08/02 08:44:03;;;;;;;;;26.50;24.75;;;;;39.86;32.20;100589.84;144257;643;132010;-69
2021/08/02 08:46:37;;;;;;;;;27.50;22.75;;;;;40.24;31.54;100590.38;144225;639;132012;-69
2021/08/02 08:49:11;;;;;;;;;22.50;22.50;;;;;40.64;30.48;100588.69;144256;624;132008;-69
2021/08/02 08:51:47;;;;;;;;;25.50;23.50;;;;;40.30;30.79;100599.56;144223;594;131926;-70
2021/08/02 08:54:20;;;;;;;;;27.50;26.75;;;;;40.81;28.30;100592.31;144246;598;132012;-70
2021/08/02 08:56:54;;;;;;;;;26.50;26.25;;;;;40.50;29.01;100589.00;144222;566;131016;-69
2021/08/02 08:59:29;;;;;;;;;23.25;23.25;;;;;40.26;29.63;100589.06;144254;604;132010;-69
2021/08/02 09:02:07;;;;;;;;;9.00;7.75;;;;;40.97;27.84;100584.34;144220;653;131906;-70
2021/08/02 09:04:42;;;;;;;;;28.00;27.00;;;;;41.02;27.54;100585.28;144259;563;132010;-69
2021/08/02 09:07:16;;;;;;;;;28.00;25.00;;;;;41.04;28.58;100587.81;144219;610;132907;-69
2021/08/02 09:09:50;;;;;;;;;28.25;26.50;;;;;41.30;28.51;100586.31;144254;657;132008;-70
2021/08/02 09:12:24;;;;;;;;;30.00;28.50;;;;;41.27;27.83;100584.88;144232;589;131907;-69
2021/08/02 09:15:03;;;;;;;;;32.00;28.00;;;;;41.44;28.22;100581.31;144251;564;132010;-69
2021/08/02 09:17:43;;;;;;;;;31.50;26.75;;;;;41.28;27.64;100578.28;144227;572;131020;-69
2021/08/02 09:20:25;;;;;;;;;33.50;28.75;;;;;41.49;27.54;100572.28;144244;636;132012;-69
2021/08/02 09:23:25;;;;;;;;;32.25;29.00;;;;;40.90;27.93;100574.31;144229;594;132021;-70
2021/08/02 09:26:02;;;;;;;;;38.00;32.00;;;;;40.95;27.96;100565.34;144257;590;131023;-68
2021/08/02 09:28:36;;;;;;;;;40.75;32.75;;;;;40.92;27.37;100569.41;144220;574;132907;-69
2021/08/02 09:31:10;;;;;;;;;41.00;30.25;;;;;41.20;27.27;100569.59;144260;563;131021;-69
2021/08/02 09:33:50;;;;;;;;;40.25;33.75;;;;;41.10;27.02;100567.53;144229;565;131907;-70
2021/08/02 09:36:24;;;;;;;;;34.75;30.75;;;;;41.46;26.99;100559.00;144252;614;132008;-69
2021/08/02 09:39:20;;;;;;;;;30.25;28.25;;;;;41.35;26.53;100558.00;144226;565;132012;-70
2021/08/02 09:42:08;;;;;;;;;31.50;27.75;;;;;41.46;26.25;100562.59;144254;583;132008;-69
2021/08/02 09:44:42;;;;;;;;;33.00;29.00;;;;;41.47;26.26;100553.25;144222;639;132012;-69
2021/08/02 09:47:17;;;;;;;;;31.50;28.75;;;;;41.60;26.57;100552.91;144252;608;131020;-70
2021/08/02 09:49:52;;;;;;;;;27.75;26.25;;;;;41.39;27.32;100557.28;144229;598;131016;-69
2021/08/02 09:52:26;;;;;;;;;31.25;27.75;;;;;41.47;28.67;100553.25;144252;578;132010;-70
2021/08/02 09:55:04;;;;;;;;;26.25;25.75;;;;;41.55;28.55;100552.00;144225;572;132018;-69
2021/08/02 09:57:38;;;;;;;;;25.00;25.00;;;;;42.16;28.17;100549.25;144252;573;132008;-70
2021/08/02 10:00:15;;;;;;;;;29.75;25.00;;;;;41.48;29.06;100548.59;144226;606;131907;-69
2021/08/02 10:02:53;;;;;;;;;29.00;27.25;;;;;42.49;27.71;100541.91;144253;628;132014;-69
2021/08/02 10:05:27;;;;;;;;;24.50;24.50;;;;;42.94;26.60;100543.44;144224;570;132907;-69
2021/08/02 10:08:01;;;;;;;;;25.00;24.50;;;;;42.74;23.68;100548.78;144256;642;131020;-70
2021/08/02 10:10:35;;;;;;;;;23.50;22.00;;;;;42.95;23.33;100534.06;144221;585;132907;-69
2021/08/02 10:13:10;;;;;;;;;28.00;26.00;;;;;42.75;22.61;100536.66;144246;565;131020;-69
2021/08/02 10:15:57;;;;;;;;;24.25;24.25;;;;;42.78;22.21;100533.38;144227;626;131906;-68
2021/08/02 10:18:33;;;;;;;;;27.25;25.75;;;;;42.88;21.51;100532.59;144257;674;132014;-70
2021/08/02 10:21:13;;;;;;;;;25.00;25.00;;;;;42.46;21.73;100531.38;144224;665;132013;-70
2021/08/02 10:23:47;;;;;;;;;28.25;26.75;;;;;43.00;20.88;100524.16;144255;604;131020;-69
2021/08/02 10:26:29;;;;;;;;;24.00;24.00;;;;;42.37;22.14;100521.91;144226;578;131907;-70
2021/08/02 10:29:07;;;;;;;;;24.75;23.50;;;;;42.99;21.03;100523.31;144250;606;132014;-69
2021/08/02 10:31:53;;;;;;;;;22.75;21.25;;;;;43.12;20.06;100522.06;144231;575;132036;-71
2021/08/02 10:34:28;;;;;;;;;20.50;20.50;;;;;43.23;18.94;100518.28;144254;643;131022;-71
2021/08/02 10:37:07;;;;;;;;;25.50;24.25;;;;;43.23;19.30;100511.94;144225;551;132012;-69
2021/08/02 10:39:41;;;;;;;;;20.25;20.25;;;;;42.98;19.32;100504.25;144244;609;132008;-69
2021/08/02 10:42:18;;;;;;;;;27.50;26.25;;;;;42.98;18.74;100505.09;144221;604;132907;-70
2021/08/02 10:44:59;;;;;;;;;27.00;23.00;;;;;42.60;19.20;100499.50;144254;569;131021;-69
2021/08/02 10:47:44;;;;;;;;;25.50;22.50;;;;;42.80;18.46;100498.03;144223;571;131907;-69
2021/08/02 10:50:41;;;;;;;;;25.50;23.50;;;;;42.78;18.20;100495.56;144258;588;131011;-69
2021/08/02 10:53:19;;;;;;;;;21.50;21.50;;;;;42.98;18.36;100499.59;144227;611;132012;-70
2021/08/02 10:55:59;;;;;;;;;29.00;26.50;;;;;43.15;18.81;100493.91;144255;575;132010;-69
2021/08/02 10:58:41;;;;;;;;;28.00;26.25;;;;;42.95;18.87;100486.28;144228;611;131907;-69
2021/08/02 11:01:20;;;;;;;;;26.50;26.50;;;;;42.52;19.29;100497.22;144252;634;131020;-70
2021/08/02 11:03:54;;;;;;;;;27.50;24.25;;;;;43.21;18.53;100487.34;144228;640;132907;-69
2021/08/02 11:06:30;;;;;;;;;28.75;27.25;;;;;43.18;17.95;100493.38;144250;580;131021;-70
2021/08/02 11:09:05;;;;;;;;;29.50;26.25;;;;;42.95;17.83;100478.84;144224;613;132906;-69
2021/08/02 11:11:39;;;;;;;;;30.75;26.25;;;;;42.93;18.16;100485.72;144257;632;131020;-69
2021/08/02 11:14:21;;;;;;;;;21.75;20.50;;;;;42.89;17.70;100479.91;144221;617;132907;-69
2021/08/02 11:16:57;;;;;;;;;28.50;26.75;;;;;43.21;17.51;100472.69;144252;635;132010;-70
2021/08/02 11:19:33;;;;;;;;;21.25;20.00;;;;;42.99;18.02;100475.56;144222;566;131017;-69
2021/08/02 11:22:08;;;;;;;;;23.00;21.75;;;;;42.49;18.39;100470.19;144260;612;131021;-69
2021/08/02 11:25:03;;;;;;;;;22.25;22.00;;;;;43.54;17.56;100463.22;144228;608;132014;-70
2021/08/02 11:27:37;;;;;;;;;19.00;18.25;;;;;43.43;17.14;100465.09;144255;564;132015;-69
2021/08/02 11:30:15;;;;;;;;;21.50;20.75;;;;;43.77;16.74;100458.31;144224;636;132906;-69
2021/08/02 11:32:49;;;;;;;;;20.75;20.25;;;;;44.07;15.64;100457.63;144250;629;131020;-69
2021/08/02 11:35:23;;;;;;;;;25.75;24.00;;;;;43.63;16.41;100451.66;144223;577;132020;-69
2021/08/02 11:37:57;;;;;;;;;21.00;21.00;;;;;43.61;16.31;100452.75;144256;615;131020;-69
2021/08/02 11:40:38;;;;;;;;;18.00;18.00;;;;;43.69;16.28;100443.13;144224;636;132020;-69
2021/08/02 11:43:12;;;;;;;;;17.75;16.50;;;;;43.63;16.29;100449.72;144255;589;132011;-68
2021/08/02 11:45:46;;;;;;;;;20.25;18.75;;;;;43.92;15.13;100441.84;144225;569;131020;-70